Time;durP1;ratioP1;P1;durP2;ratioP2;P2;SDS_P1;SDS_P2;PMS_P1;PMS_P2;Temp;Humidity;BMP_temperature;BMP_pressure;BME280_temperature;BME280_humidity;BME280_pressure;Samples;Min_cycle;Max_cycle;Signal;HPM_P1;HPM_P2
2022/12/21 00:00:09;;;;;;;26.70;14.90;;;;;;;5.71;84.81;99351.22;347372;28;1070;-71
2022/12/21 00:00:21;;;;;;;27.33;15.05;;;;;;;5.79;84.44;99349.41;347227;28;1240;-71
2022/12/21 00:00:33;;;;;;;26.05;14.80;;;;;;;5.89;84.75;99350.06;347921;28;1357;-71
2022/12/21 00:00:45;;;;;;;24.55;14.27;;;;;;;5.95;84.19;99354.28;347944;28;1101;-71
2022/12/21 00:01:15;;;;;;;24.38;13.48;;;;;;;6.08;84.21;99349.78;347981;28;1038;-71
2022/12/21 00:01:30;;;;;;;23.98;13.75;;;;;;;6.05;83.33;99357.56;347781;28;1707;-71
2022/12/21 00:01:42;;;;;;;23.48;14.15;;;;;;;6.02;83.77;99355.00;345977;28;1280;-71
2022/12/21 00:01:59;;;;;;;24.83;14.48;;;;;;;5.96;83.46;99354.28;346118;28;1183;-71
2022/12/21 00:02:11;;;;;;;26.05;15.18;;;;;;;6.00;83.89;99352.50;345353;28;1678;-70
2022/12/21 00:02:23;;;;;;;26.48;16.35;;;;;;;6.03;83.68;99356.72;346963;28;1962;-71
2022/12/21 00:02:36;;;;;;;27.60;18.00;;;;;;;6.04;83.59;99353.25;347371;28;1070;-71
2022/12/21 00:02:48;;;;;;;30.67;18.67;;;;;;;6.08;83.59;99349.78;347328;28;1158;-71
2022/12/21 00:03:00;;;;;;;31.90;17.65;;;;;;;6.09;83.57;99347.13;347376;28;1414;-71
2022/12/21 00:03:12;;;;;;;29.15;16.25;;;;;;;6.06;83.23;99348.94;347485;28;1254;-71
2022/12/21 00:03:24;;;;;;;25.45;15.05;;;;;;;6.03;83.99;99354.16;346806;28;1655;-71
2022/12/21 00:03:36;;;;;;;25.25;15.18;;;;;;;5.91;83.99;99353.44;346365;28;1062;-71
2022/12/21 00:03:57;;;;;;;28.42;15.63;;;;;;;5.86;83.95;99363.03;346016;28;1340;-71
2022/12/21 00:04:09;;;;;;;27.45;14.65;;;;;;;5.92;84.21;99355.16;345853;28;1733;-70
2022/12/21 00:04:21;;;;;;;23.63;13.77;;;;;;;5.90;84.37;99358.66;344989;28;2701;-71
2022/12/21 00:04:33;;;;;;;22.92;13.80;;;;;;;5.93;83.79;99354.28;346045;28;1541;-71
2022/12/21 00:04:46;;;;;;;24.17;13.98;;;;;;;5.99;84.12;99355.94;345532;28;1590;-71
2022/12/21 00:04:58;;;;;;;23.75;13.65;;;;;;;6.03;84.59;99351.56;347392;28;1770;-71
2022/12/21 00:05:10;;;;;;;22.77;13.55;;;;;;;5.99;84.62;99361.94;347575;28;1051;-71
2022/12/21 00:05:22;;;;;;;23.17;13.48;;;;;;;6.04;84.44;99358.41;347430;28;1341;-70
2022/12/21 00:05:34;;;;;;;22.55;13.45;;;;;;;6.02;83.73;99355.88;346629;28;1593;-71
2022/12/21 00:05:46;;;;;;;21.90;13.73;;;;;;;6.06;83.82;99351.53;347479;28;1800;-71
2022/12/21 00:05:58;;;;;;;27.52;19.23;;;;;;;6.12;83.92;99354.00;347759;28;1544;-71
2022/12/21 00:06:11;;;;;;;34.63;25.45;;;;;;;6.15;83.62;99356.50;347694;28;1045;-71
2022/12/21 00:06:25;;;;;;;35.45;25.70;;;;;;;6.18;83.89;99356.44;347219;28;1750;-71
2022/12/21 00:06:38;;;;;;;32.25;22.35;;;;;;;6.16;84.05;99355.63;347283;28;1420;-71
2022/12/21 00:06:50;;;;;;;32.90;21.92;;;;;;;6.20;83.94;99357.28;347521;28;1117;-71
2022/12/21 00:07:02;;;;;;;32.75;21.77;;;;;;;6.19;84.25;99353.81;346560;28;732;-71
2022/12/21 00:07:14;;;;;;;35.08;21.73;;;;;;;6.17;83.94;99352.16;346221;28;1232;-72
2022/12/21 00:07:26;;;;;;;33.13;20.77;;;;;;;6.20;83.29;99357.28;344558;28;1071;-71
2022/12/21 00:07:38;;;;;;;29.48;19.67;;;;;;;6.16;84.14;99353.06;344513;28;1607;-71
2022/12/21 00:07:50;;;;;;;28.30;19.02;;;;;;;6.19;83.63;99355.56;346097;28;1031;-71
2022/12/21 00:08:03;;;;;;;28.73;19.53;;;;;;;6.19;84.23;99355.56;345963;28;1286;-71
2022/12/21 00:08:15;;;;;;;28.95;20.27;;;;;;;6.21;83.74;99361.53;345572;28;1432;-70
2022/12/21 00:08:27;;;;;;;28.47;20.20;;;;;;;6.16;83.38;99353.06;344700;28;1651;-71
2022/12/21 00:08:45;;;;;;;28.67;19.65;;;;;;;6.20;83.67;99359.84;344932;28;1099;-71
2022/12/21 00:08:59;;;;;;;26.85;18.58;;;;;;;6.11;83.93;99360.00;344731;28;1058;-71
2022/12/21 00:09:13;;;;;;;24.95;17.63;;;;;;;6.02;83.17;99360.19;346541;28;2203;-71
2022/12/21 00:09:25;;;;;;;25.35;16.65;;;;;;;5.96;83.99;99362.00;347270;28;1357;-71
2022/12/21 00:09:37;;;;;;;24.42;15.77;;;;;;;5.80;83.83;99365.72;347496;28;1127;-71
2022/12/21 00:09:49;;;;;;;22.25;14.68;;;;;;;5.67;84.13;99353.91;346766;28;1681;-70
2022/12/21 00:10:01;;;;;;;20.02;13.57;;;;;;;5.46;84.53;99361.13;346537;28;1069;-71
2022/12/21 00:10:13;;;;;;;19.02;13.00;;;;;;;5.47;85.10;99362.81;347411;28;1104;-70
2022/12/21 00:10:25;;;;;;;20.55;14.02;;;;;;;5.55;85.65;99355.84;345655;28;1761;-71
2022/12/21 00:10:37;;;;;;;24.60;17.85;;;;;;;5.63;85.43;99358.25;346150;28;929;-71
2022/12/21 00:10:48;;;;;;;28.83;21.90;;;;;;;5.71;85.30;99358.13;346307;28;1316;-71
2022/12/21 00:11:00;;;;;;;32.63;25.20;;;;;;;5.77;85.04;99355.44;346058;28;1161;-71
2022/12/21 00:11:14;;;;;;;33.45;26.23;;;;;;;5.79;84.85;99351.09;346556;28;1106;-71
2022/12/21 00:11:27;;;;;;;31.67;24.77;;;;;;;5.84;84.42;99354.47;347601;28;1831;-71
2022/12/21 00:11:39;;;;;;;29.73;23.08;;;;;;;5.89;84.30;99352.63;347699;28;1291;-71
2022/12/21 00:11:52;;;;;;;30.52;22.73;;;;;;;5.93;84.54;99351.69;347289;28;1939;-71
2022/12/21 00:12:04;;;;;;;30.70;22.23;;;;;;;5.98;83.66;99349.94;346110;28;1913;-71
2022/12/21 00:12:16;;;;;;;28.38;21.15;;;;;;;6.03;83.79;99347.25;345851;28;1353;-70
2022/12/21 00:12:28;;;;;;;24.70;19.52;;;;;;;6.07;83.87;99358.38;346896;28;1246;-71
2022/12/21 00:12:40;;;;;;;24.48;18.10;;;;;;;6.07;83.16;99348.91;347574;28;1589;-71
2022/12/21 00:12:54;;;;;;;24.92;17.27;;;;;;;6.08;82.80;99345.44;346095;28;1024;-71
2022/12/21 00:13:06;;;;;;;23.17;16.23;;;;;;;6.06;82.46;99351.53;344244;28;1598;-70
2022/12/21 00:13:18;;;;;;;24.05;16.02;;;;;;;6.08;82.61;99349.78;342312;28;1684;-71
2022/12/21 00:13:32;;;;;;;23.60;15.70;;;;;;;6.11;81.64;99355.69;343254;28;1259;-71
2022/12/21 00:13:44;;;;;;;24.10;15.35;;;;;;;6.11;81.60;99350.53;343383;28;1956;-71
2022/12/21 00:13:58;;;;;;;24.15;15.27;;;;;;;6.08;81.29;99350.63;343372;28;1245;-71
2022/12/21 00:14:10;;;;;;;24.30;16.10;;;;;;;6.06;81.30;99351.53;342849;28;1667;-71
2022/12/21 00:14:22;;;;;;;23.90;16.52;;;;;;;6.02;81.05;99360.19;342911;28;1212;-71
2022/12/21 00:14:34;;;;;;;24.45;16.05;;;;;;;5.99;81.23;99361.94;343306;28;1146;-71
2022/12/21 00:14:46;;;;;;;24.58;15.20;;;;;;;5.94;81.05;99353.41;343277;28;1019;-71
2022/12/21 00:14:58;;;;;;;24.88;15.15;;;;;;;5.92;81.78;99351.75;343505;28;1269;-71
2022/12/21 00:15:10;;;;;;;24.55;14.85;;;;;;;5.93;82.51;99356.00;343576;28;1415;-71
2022/12/21 00:15:22;;;;;;;25.75;15.13;;;;;;;5.94;83.01;99353.41;343843;28;1340;-71
2022/12/21 00:15:34;;;;;;;25.70;15.27;;;;;;;5.98;82.81;99349.94;343651;28;1091;-71
2022/12/21 00:16:05;;;;;;;26.67;14.60;;;;;;;6.04;83.04;99350.69;343338;28;1305;-71
2022/12/21 00:16:20;;;;;;;21.65;14.27;;;;;;;6.11;83.14;99353.13;342995;28;1297;-71
2022/12/21 00:16:35;;;;;;;21.27;14.52;;;;;;;6.15;82.84;99351.34;344926;28;2843;-71
2022/12/21 00:16:47;;;;;;;20.60;14.57;;;;;;;6.20;82.53;99352.09;343926;28;1059;-71
2022/12/21 00:16:59;;;;;;;21.00;14.50;;;;;;;6.22;82.61;99347.75;344963;28;1114;-70
2022/12/21 00:17:12;;;;;;;21.57;14.33;;;;;;;6.23;83.01;99341.72;343991;28;1161;-70
2022/12/21 00:17:24;;;;;;;20.98;13.75;;;;;;;6.25;82.53;99350.28;344055;28;1819;-70
2022/12/21 00:17:36;;;;;;;20.60;13.93;;;;;;;6.28;82.93;99352.81;345114;28;1336;-71
2022/12/21 00:17:55;;;;;;;20.55;13.85;;;;;;;6.34;82.39;99346.69;345894;28;1018;-70
2022/12/21 00:18:07;;;;;;;20.73;14.02;;;;;;;6.36;82.57;99344.91;345814;28;1063;-70
2022/12/21 00:18:19;;;;;;;21.17;14.25;;;;;;;6.38;82.79;99348.31;344894;28;1618;-71
2022/12/21 00:18:35;;;;;;;21.45;13.93;;;;;;;6.40;82.85;99346.53;345978;28;1575;-71
2022/12/21 00:18:47;;;;;;;21.92;13.82;;;;;;;6.42;82.53;99346.50;345070;28;1015;-71
2022/12/21 00:19:00;;;;;;;20.58;13.32;;;;;;;6.45;82.43;99344.72;344689;28;1371;-71
2022/12/21 00:19:16;;;;;;;19.85;12.57;;;;;;;6.47;82.66;99336.94;346273;28;1184;-71
2022/12/21 00:19:29;;;;;;;19.85;11.80;;;;;;;6.48;82.47;99344.66;346324;28;1813;-71
2022/12/21 00:19:43;;;;;;;19.80;11.48;;;;;;;6.52;82.37;99341.13;346768;28;1819;-71
2022/12/21 00:19:55;;;;;;;19.55;11.38;;;;;;;6.53;82.34;99342.81;346052;28;1037;-70
2022/12/21 00:20:07;;;;;;;20.40;12.18;;;;;;;6.49;82.19;99340.34;346344;28;1061;-71
2022/12/21 00:20:19;;;;;;;20.52;12.80;;;;;;;6.47;82.81;99339.50;347016;28;1321;-70
2022/12/21 00:20:31;;;;;;;20.92;12.85;;;;;;;6.42;82.62;99343.91;346994;28;1523;-71
2022/12/21 00:20:43;;;;;;;19.70;12.65;;;;;;;6.37;82.87;99346.59;347290;28;1271;-71
2022/12/21 00:21:00;;;;;;;19.45;12.73;;;;;;;6.32;82.87;99344.13;347294;28;1647;-71
2022/12/21 00:21:14;;;;;;;20.27;12.68;;;;;;;6.25;82.71;99347.69;347610;28;1057;-70
2022/12/21 00:21:29;;;;;;;20.55;12.27;;;;;;;6.28;82.75;99346.78;347587;28;1989;-71
2022/12/21 00:21:41;;;;;;;22.02;12.10;;;;;;;6.26;83.37;99344.25;347227;28;2212;-71
2022/12/21 00:21:53;;;;;;;22.40;12.30;;;;;;;6.20;83.29;99349.53;347495;28;1212;-71
2022/12/21 00:22:05;;;;;;;22.20;12.48;;;;;;;6.19;83.48;99347.81;347595;28;1101;-71
2022/12/21 00:22:19;;;;;;;21.35;12.20;;;;;;;6.11;83.49;99347.13;347177;28;1287;-71
2022/12/21 00:22:31;;;;;;;20.38;12.25;;;;;;;6.08;83.87;99345.44;347562;28;1183;-71
2022/12/21 00:22:43;;;;;;;18.95;12.43;;;;;;;5.98;83.54;99347.34;346570;28;1634;-70
2022/12/21 00:22:55;;;;;;;18.48;12.35;;;;;;;5.96;84.14;99349.09;347637;28;1061;-70
2022/12/21 00:23:07;;;;;;;19.45;12.05;;;;;;;5.96;83.79;99345.69;347553;28;1120;-70
2022/12/21 00:23:19;;;;;;;20.27;11.93;;;;;;;5.97;83.67;99348.22;347398;28;1695;-70
2022/12/21 00:23:31;;;;;;;20.80;12.02;;;;;;;5.95;84.14;99349.97;347437;28;1290;-71
2022/12/21 00:23:45;;;;;;;21.70;12.05;;;;;;;5.94;84.06;99350.84;347005;28;2262;-71
2022/12/21 00:23:58;;;;;;;20.30;11.93;;;;;;;5.91;83.88;99348.28;347641;28;1169;-70
2022/12/21 00:24:11;;;;;;;19.33;11.98;;;;;;;5.88;84.09;99352.69;347774;28;1181;-71
2022/12/21 00:24:23;;;;;;;21.98;12.48;;;;;;;5.78;84.24;99341.69;347377;28;1241;-71
2022/12/21 00:24:35;;;;;;;23.10;12.50;;;;;;;5.77;84.49;99350.28;347653;28;1066;-71
2022/12/21 00:24:47;;;;;;;23.50;12.38;;;;;;;5.83;83.85;99345.00;347470;28;1716;-70
2022/12/21 00:24:59;;;;;;;21.35;12.30;;;;;;;5.80;83.67;99345.91;347150;28;1614;-71
2022/12/21 00:25:11;;;;;;;21.38;12.70;;;;;;;5.78;83.63;99342.53;347993;28;739;-71
2022/12/21 00:25:23;;;;;;;20.92;12.75;;;;;;;5.84;83.96;99357.03;347531;28;1326;-70
2022/12/21 00:25:35;;;;;;;20.20;12.95;;;;;;;5.80;83.09;99342.50;346526;28;1209;-71
2022/12/21 00:25:47;;;;;;;19.58;12.38;;;;;;;5.83;83.81;99345.00;345808;28;1156;-71
2022/12/21 00:26:01;;;;;;;20.65;12.63;;;;;;;5.89;83.37;99349.22;346190;28;1649;-71
2022/12/21 00:26:17;;;;;;;21.52;12.82;;;;;;;5.92;83.21;99339.69;347735;28;1321;-71
2022/12/21 00:26:32;;;;;;;20.25;11.80;;;;;;;5.97;83.01;99343.06;346154;28;1195;-71
2022/12/21 00:26:44;;;;;;;20.23;11.98;;;;;;;5.93;82.72;99346.53;346105;28;1113;-71
2022/12/21 00:26:56;;;;;;;20.08;12.85;;;;;;;5.93;82.03;99346.53;345840;28;1728;-70
2022/12/21 00:27:09;;;;;;;20.05;13.10;;;;;;;5.92;82.50;99339.69;346537;28;1803;-71
2022/12/21 00:27:21;;;;;;;18.52;12.63;;;;;;;5.89;82.82;99347.47;346638;28;2022;-71
2022/12/21 00:27:33;;;;;;;18.25;12.43;;;;;;;5.90;82.46;99348.34;346299;28;1677;-71
2022/12/21 00:27:45;;;;;;;19.70;12.27;;;;;;;5.83;82.44;99342.44;347260;28;1019;-71
2022/12/21 00:27:57;;;;;;;21.23;12.50;;;;;;;5.72;82.93;99350.38;347351;28;1035;-71
2022/12/21 00:28:09;;;;;;;22.65;12.48;;;;;;;5.79;83.51;99343.38;345728;28;1674;-71
2022/12/21 00:28:21;;;;;;;22.73;12.55;;;;;;;5.83;83.67;99350.16;345929;28;1286;-71
2022/12/21 00:28:34;;;;;;;23.15;12.95;;;;;;;5.87;83.97;99345.81;345933;28;1118;-71
2022/12/21 00:28:47;;;;;;;23.88;13.18;;;;;;;5.92;83.70;99338.84;345832;28;1218;-70
2022/12/21 00:29:00;;;;;;;23.50;13.50;;;;;;;5.98;83.64;99339.59;346143;28;1088;-70
2022/12/21 00:29:12;;;;;;;23.73;13.18;;;;;;;6.03;84.12;99330.94;345544;28;1809;-71
2022/12/21 00:29:24;;;;;;;23.02;13.10;;;;;;;6.09;84.06;99330.81;345541;28;1896;-71
2022/12/21 00:29:36;;;;;;;22.30;13.02;;;;;;;6.11;83.50;99334.22;344973;28;1105;-71
2022/12/21 00:29:48;;;;;;;23.30;13.02;;;;;;;6.16;83.56;99332.41;344744;28;1067;-71
2022/12/21 00:30:01;;;;;;;21.02;12.23;;;;;;;6.21;83.59;99335.72;344562;28;1221;-71
2022/12/21 00:30:13;;;;;;;16.98;11.00;;;;;;;6.26;83.38;99341.66;344070;28;1709;-71
2022/12/21 00:30:25;;;;;;;16.45;11.05;;;;;;;6.30;83.44;99342.41;345376;28;1309;-71
2022/12/21 00:30:37;;;;;;;16.73;11.27;;;;;;;6.33;83.60;99334.63;345967;28;1031;-71
2022/12/21 00:30:49;;;;;;;18.08;11.75;;;;;;;6.37;83.29;99341.44;344768;28;1081;-71
2022/12/21 00:31:05;;;;;;;18.60;11.57;;;;;;;6.41;83.02;99340.50;344863;28;1056;-71
2022/12/21 00:31:20;;;;;;;19.13;11.63;;;;;;;6.45;82.72;99344.72;344242;28;1634;-71
2022/12/21 00:31:36;;;;;;;20.25;12.48;;;;;;;6.50;83.47;99342.00;344456;28;1472;-71
2022/12/21 00:31:48;;;;;;;20.92;12.57;;;;;;;6.50;82.60;99336.84;343996;28;982;-70
2022/12/21 00:32:00;;;;;;;21.35;12.35;;;;;;;6.52;83.41;99335.09;344682;28;1095;-71
2022/12/21 00:32:12;;;;;;;22.27;12.70;;;;;;;6.53;83.47;99336.81;344939;28;1070;-71
2022/12/21 00:32:24;;;;;;;21.20;12.85;;;;;;;6.54;82.67;99335.91;345494;28;1784;-71
2022/12/21 00:32:36;;;;;;;20.77;13.18;;;;;;;6.53;83.16;99336.81;346138;28;1062;-71
2022/12/21 00:32:48;;;;;;;19.42;12.98;;;;;;;6.50;82.76;99332.56;343471;28;1043;-71
2022/12/21 00:33:00;;;;;;;20.55;12.65;;;;;;;6.52;83.18;99329.91;345282;28;1675;-71
2022/12/21 00:33:12;;;;;;;21.88;12.43;;;;;;;6.52;82.92;99330.78;345009;28;1298;-71
2022/12/21 00:33:24;;;;;;;22.88;12.68;;;;;;;6.53;83.00;99331.63;346030;28;1336;-71
2022/12/21 00:33:37;;;;;;;22.17;12.90;;;;;;;6.55;83.35;99332.47;345504;28;1719;-70
2022/12/21 00:33:50;;;;;;;20.38;12.40;;;;;;;6.59;82.84;99331.50;345083;28;1546;-71
2022/12/21 00:34:02;;;;;;;20.45;12.43;;;;;;;6.57;83.02;99333.28;345985;28;1197;-71
2022/12/21 00:34:17;;;;;;;22.08;12.63;;;;;;;6.54;82.92;99331.63;346102;28;1190;-71
2022/12/21 00:34:30;;;;;;;23.40;12.65;;;;;;;6.55;83.56;99329.88;344983;28;1070;-71
2022/12/21 00:34:42;;;;;;;22.70;12.60;;;;;;;6.56;82.68;99329.84;345406;28;1582;-70
2022/12/21 00:34:54;;;;;;;22.58;13.10;;;;;;;6.57;82.84;99326.38;347137;28;1055;-71
2022/12/21 00:35:06;;;;;;;20.83;13.18;;;;;;;6.60;83.20;99333.22;347690;28;1116;-71
2022/12/21 00:35:18;;;;;;;20.50;12.77;;;;;;;6.63;82.85;99333.13;347385;28;1257;-71
2022/12/21 00:35:30;;;;;;;19.40;12.48;;;;;;;6.64;83.33;99329.69;347741;28;1063;-71
2022/12/21 00:35:49;;;;;;;20.98;12.70;;;;;;;6.68;82.55;99331.31;346762;28;2000;-71
2022/12/21 00:36:03;;;;;;;21.40;12.73;;;;;;;6.70;82.57;99331.25;347642;28;1260;-71
2022/12/21 00:36:17;;;;;;;19.77;12.80;;;;;;;6.70;83.07;99334.72;347574;28;1041;-71
2022/12/21 00:36:29;;;;;;;20.20;13.20;;;;;;;6.68;82.57;99331.31;346210;28;1067;-71
2022/12/21 00:36:41;;;;;;;22.58;13.75;;;;;;;6.67;82.74;99331.34;345793;28;1663;-71
2022/12/21 00:36:53;;;;;;;22.88;13.38;;;;;;;6.64;82.56;99324.53;346949;28;1581;-71
2022/12/21 00:37:05;;;;;;;21.92;12.95;;;;;;;6.67;82.65;99334.78;346056;28;1612;-71
2022/12/21 00:37:17;;;;;;;20.58;12.68;;;;;;;6.68;82.37;99328.72;346059;28;1309;-71
2022/12/21 00:37:29;;;;;;;22.10;12.93;;;;;;;6.71;82.61;99331.22;345195;28;736;-71
2022/12/21 00:37:41;;;;;;;23.48;13.27;;;;;;;6.73;82.83;99332.06;344981;28;1241;-71
2022/12/21 00:37:53;;;;;;;22.52;13.55;;;;;;;6.76;82.84;99334.59;344110;28;1635;-71
2022/12/21 00:38:05;;;;;;;23.13;13.75;;;;;;;6.78;82.60;99332.81;344722;28;1541;-71
2022/12/21 00:38:18;;;;;;;23.75;14.32;;;;;;;6.80;82.62;99332.75;344461;28;1297;-71
2022/12/21 00:38:31;;;;;;;25.42;14.70;;;;;;;6.85;82.30;99327.50;344755;28;1305;-71
2022/12/21 00:38:44;;;;;;;23.88;14.40;;;;;;;6.85;81.96;99328.34;345515;28;895;-71
2022/12/21 00:38:57;;;;;;;21.15;13.95;;;;;;;6.87;82.32;99330.91;345170;28;1748;-71
2022/12/21 00:39:09;;;;;;;21.30;13.80;;;;;;;6.89;81.74;99334.31;346452;28;1212;-71
2022/12/21 00:39:21;;;;;;;21.63;13.77;;;;;;;6.90;82.18;99325.66;346801;28;1963;-71
2022/12/21 00:39:38;;;;;;;22.60;13.82;;;;;;;6.82;81.89;99332.72;347469;28;1154;-70
2022/12/21 00:39:49;;;;;;;23.40;14.15;;;;;;;6.82;82.25;99332.72;347859;28;1034;-71
2022/12/21 00:40:04;;;;;;;23.00;14.30;;;;;;;6.84;81.90;99330.97;346882;28;1558;-71
2022/12/21 00:40:16;;;;;;;24.17;14.50;;;;;;;6.84;82.39;99336.13;347343;28;1175;-70
2022/12/21 00:40:28;;;;;;;24.17;14.40;;;;;;;6.87;81.75;99323.16;347446;28;1018;-70
2022/12/21 00:40:40;;;;;;;23.58;14.30;;;;;;;6.90;81.95;99325.66;346127;28;1070;-70
2022/12/21 00:40:57;;;;;;;22.90;14.07;;;;;;;6.94;81.74;99332.44;346164;28;1469;-71
2022/12/21 00:41:12;;;;;;;21.02;13.63;;;;;;;6.96;81.62;99331.56;345477;28;1077;-71
2022/12/21 00:41:26;;;;;;;21.83;13.35;;;;;;;6.99;81.53;99335.78;345756;28;1543;-71
2022/12/21 00:41:38;;;;;;;22.27;13.20;;;;;;;6.98;81.73;99334.06;344088;28;1090;-71
2022/12/21 00:41:50;;;;;;;22.58;13.50;;;;;;;6.95;81.92;99334.16;346182;28;1507;-70
2022/12/21 00:42:02;;;;;;;21.83;13.65;;;;;;;6.94;81.90;99332.44;345061;28;1243;-71
2022/12/21 00:42:14;;;;;;;22.08;13.60;;;;;;;6.93;82.01;99331.59;344100;28;1833;-71
2022/12/21 00:42:27;;;;;;;23.42;13.70;;;;;;;6.95;81.96;99331.56;344854;28;1111;-71
2022/12/21 00:42:39;;;;;;;24.23;13.93;;;;;;;6.98;81.76;99328.91;345107;28;1062;-71
2022/12/21 00:42:51;;;;;;;22.02;13.75;;;;;;;6.98;81.83;99331.50;346453;28;1281;-71
2022/12/21 00:43:03;;;;;;;20.27;13.38;;;;;;;7.01;81.67;99336.59;346205;28;1406;-71
2022/12/21 00:43:15;;;;;;;20.20;13.88;;;;;;;7.03;82.06;99324.50;346530;28;2126;-71
2022/12/21 00:43:28;;;;;;;20.02;13.68;;;;;;;7.04;81.66;99328.75;346259;28;1333;-71
2022/12/21 00:43:41;;;;;;;22.85;14.30;;;;;;;7.03;81.74;99326.25;347225;28;1416;-71
2022/12/21 00:43:55;;;;;;;24.48;14.73;;;;;;;7.02;81.47;99330.53;347659;28;1133;-71
2022/12/21 00:44:08;;;;;;;22.95;14.10;;;;;;;7.01;81.89;99323.69;347963;28;970;-71
2022/12/21 00:44:20;;;;;;;23.20;14.32;;;;;;;7.04;81.82;99327.91;346631;28;1804;-70
2022/12/21 00:44:32;;;;;;;24.10;14.85;;;;;;;7.06;81.54;99332.16;347495;28;1689;-71
2022/12/21 00:44:43;;;;;;;23.60;14.30;;;;;;;7.04;81.44;99322.75;347256;28;943;-70
2022/12/21 00:44:55;;;;;;;23.38;13.90;;;;;;;7.02;81.73;99322.78;347302;28;1055;-70
2022/12/21 00:45:08;;;;;;;22.25;13.85;;;;;;;7.04;81.53;99328.75;346091;28;1007;-70
2022/12/21 00:45:20;;;;;;;22.38;14.25;;;;;;;7.05;81.13;99327.91;346869;28;1362;-70
2022/12/21 00:45:32;;;;;;;21.52;13.70;;;;;;;7.05;80.94;99325.31;347249;28;2187;-70
2022/12/21 00:45:44;;;;;;;20.20;13.52;;;;;;;7.08;81.29;99330.38;347808;28;1073;-69
2022/12/21 00:45:57;;;;;;;18.92;12.60;;;;;;;7.10;81.19;99333.81;347802;28;1270;-69
2022/12/21 00:46:19;;;;;;;22.80;12.65;;;;;;;7.12;81.03;99326.00;347948;28;988;-70
2022/12/21 00:46:32;;;;;;;22.75;13.00;;;;;;;7.12;80.99;99329.47;346355;28;2223;-70
2022/12/21 00:46:45;;;;;;;21.83;13.35;;;;;;;7.12;81.47;99334.63;347153;28;1214;-69
2022/12/21 00:46:58;;;;;;;24.42;14.27;;;;;;;7.06;81.19;99334.75;346173;28;1190;-70
2022/12/21 00:47:10;;;;;;;25.75;14.40;;;;;;;7.02;81.44;99335.69;346171;28;1163;-70
2022/12/21 00:47:22;;;;;;;23.83;14.27;;;;;;;7.00;81.03;99337.47;346051;28;1329;-70
2022/12/21 00:47:33;;;;;;;22.67;13.95;;;;;;;6.96;81.76;99328.09;345599;28;1673;-70
2022/12/21 00:47:45;;;;;;;22.65;14.07;;;;;;;6.96;81.63;99335.84;346181;28;1486;-70
2022/12/21 00:47:57;;;;;;;25.73;14.52;;;;;;;6.98;81.81;99334.06;346647;28;1045;-70
2022/12/21 00:48:09;;;;;;;26.33;14.80;;;;;;;6.99;81.47;99335.78;347061;28;1062;-69
2022/12/21 00:48:22;;;;;;;25.50;15.98;;;;;;;7.02;81.53;99334.84;346763;28;1346;-71
2022/12/21 00:48:35;;;;;;;25.30;17.38;;;;;;;7.02;81.41;99327.94;346005;28;1287;-72
2022/12/21 00:48:47;;;;;;;25.60;18.05;;;;;;;7.03;81.81;99321.91;346639;28;1619;-72
2022/12/21 00:49:04;;;;;;;26.73;17.98;;;;;;;6.96;81.84;99328.09;346933;28;1442;-70
2022/12/21 00:49:16;;;;;;;26.70;19.00;;;;;;;6.98;81.42;99324.63;346573;28;1533;-70
2022/12/21 00:49:36;;;;;;;27.45;20.65;;;;;;;6.99;81.53;99326.28;347380;28;1389;-70
2022/12/21 00:49:48;;;;;;;27.23;20.17;;;;;;;6.98;81.40;99326.31;346346;28;2144;-70
2022/12/21 00:50:01;;;;;;;26.08;18.88;;;;;;;7.00;81.39;99333.19;347183;28;1157;-70
2022/12/21 00:50:13;;;;;;;23.98;16.38;;;;;;;7.02;81.27;99327.94;347834;28;1082;-70
2022/12/21 00:50:25;;;;;;;24.88;15.15;;;;;;;7.04;81.07;99323.59;347545;28;1516;-70
2022/12/21 00:50:37;;;;;;;25.23;14.82;;;;;;;7.05;81.11;99327.06;347585;28;1055;-70
2022/12/21 00:50:49;;;;;;;25.42;15.02;;;;;;;7.04;81.01;99323.59;346798;28;1790;-69
2022/12/21 00:51:10;;;;;;;23.92;15.35;;;;;;;7.02;80.90;99329.69;347852;28;1186;-70
2022/12/21 00:51:23;;;;;;;23.92;16.02;;;;;;;6.94;80.83;99332.44;347013;28;1885;-70
2022/12/21 00:51:36;;;;;;;25.20;15.95;;;;;;;6.92;81.15;99323.88;345371;28;1541;-69
2022/12/21 00:51:48;;;;;;;24.83;15.70;;;;;;;6.89;81.47;99323.97;346171;28;1035;-70
2022/12/21 00:52:00;;;;;;;23.10;15.02;;;;;;;6.89;81.25;99324.81;345863;28;1470;-70
2022/12/21 00:52:12;;;;;;;21.60;14.43;;;;;;;6.93;81.34;99330.75;345875;28;1493;-69
2022/12/21 00:52:26;;;;;;;21.63;13.57;;;;;;;6.94;81.21;99327.28;346409;28;1356;-70
2022/12/21 00:52:38;;;;;;;23.38;13.93;;;;;;;6.95;81.59;99323.81;347628;28;1055;-69
2022/12/21 00:52:50;;;;;;;24.02;14.60;;;;;;;6.96;81.37;99323.78;347560;28;1024;-70
2022/12/21 00:53:02;;;;;;;23.45;14.13;;;;;;;6.99;81.29;99330.63;346253;28;1671;-69
2022/12/21 00:53:15;;;;;;;22.48;13.45;;;;;;;7.01;81.61;99328.84;346523;28;1304;-70
2022/12/21 00:53:27;;;;;;;19.98;12.52;;;;;;;7.02;81.37;99333.13;346030;28;1065;-70
2022/12/21 00:53:40;;;;;;;20.80;12.95;;;;;;;7.02;81.36;99320.19;346273;28;1232;-70
2022/12/21 00:53:56;;;;;;;21.15;13.68;;;;;;;7.04;81.67;99328.75;346359;28;1073;-70
2022/12/21 00:54:08;;;;;;;21.20;14.02;;;;;;;7.05;81.72;99324.47;346601;28;1743;-70
2022/12/21 00:54:20;;;;;;;22.38;14.63;;;;;;;7.06;81.33;99321.81;347575;28;1265;-70
2022/12/21 00:54:32;;;;;;;23.40;15.13;;;;;;;7.09;81.11;99320.91;347352;28;1605;-70
2022/12/21 00:54:44;;;;;;;22.55;15.05;;;;;;;7.10;81.50;99323.47;345860;28;1787;-70
2022/12/21 00:54:56;;;;;;;23.85;16.48;;;;;;;7.10;81.38;99318.31;346166;28;1281;-69
2022/12/21 00:55:08;;;;;;;25.02;17.48;;;;;;;7.11;80.90;99327.75;344310;28;2136;-70
2022/12/21 00:55:21;;;;;;;24.00;17.15;;;;;;;7.15;81.15;99320.78;345849;28;1802;-70
2022/12/21 00:55:33;;;;;;;22.25;15.90;;;;;;;7.16;80.73;99322.47;345078;28;1542;-69
2022/12/21 00:55:55;;;;;;;21.98;15.10;;;;;;;7.17;80.49;99327.59;345023;28;1241;-70
2022/12/21 00:56:08;;;;;;;21.17;14.15;;;;;;;7.17;80.44;99321.59;344064;28;1599;-70
2022/12/21 00:56:21;;;;;;;20.83;13.75;;;;;;;7.15;80.67;99325.94;344186;28;1784;-70
2022/12/21 00:56:33;;;;;;;21.23;13.77;;;;;;;7.08;80.81;99322.63;344682;28;1110;-70
2022/12/21 00:56:45;;;;;;;21.65;13.82;;;;;;;7.10;80.53;99327.78;345227;28;1074;-70
2022/12/21 00:56:57;;;;;;;22.92;13.70;;;;;;;7.10;80.88;99323.47;346184;28;1211;-70
2022/12/21 00:57:08;;;;;;;22.92;13.65;;;;;;;7.09;81.12;99321.75;346617;28;1363;-70
2022/12/21 00:57:21;;;;;;;23.23;13.90;;;;;;;7.10;80.90;99318.31;346528;28;1696;-70
2022/12/21 00:57:32;;;;;;;23.48;14.10;;;;;;;7.12;81.09;99326.88;346084;28;1106;-70
2022/12/21 00:57:44;;;;;;;24.48;14.65;;;;;;;7.13;81.23;99325.97;346023;28;1050;-70
2022/12/21 00:58:00;;;;;;;23.85;15.75;;;;;;;7.15;81.07;99324.19;347431;28;1163;-70
2022/12/21 00:58:12;;;;;;;21.67;15.10;;;;;;;7.16;80.92;99318.16;346659;28;1818;-69
2022/12/21 00:58:25;;;;;;;23.02;14.43;;;;;;;7.16;81.07;99320.75;347813;28;1263;-70
2022/12/21 00:58:38;;;;;;;23.38;14.60;;;;;;;7.18;80.67;99324.16;346216;28;1038;-70
2022/12/21 00:58:50;;;;;;;24.13;15.05;;;;;;;7.17;80.71;99319.84;346131;28;1091;-70
2022/12/21 00:59:02;;;;;;;22.63;14.40;;;;;;;7.19;80.91;99318.06;346182;28;1264;-70
2022/12/21 00:59:14;;;;;;;20.70;13.98;;;;;;;7.22;80.66;99324.06;345999;28;1625;-70
2022/12/21 00:59:26;;;;;;;20.50;14.00;;;;;;;7.22;80.69;99311.13;347364;28;1463;-70
2022/12/21 00:59:38;;;;;;;20.75;14.18;;;;;;;7.23;80.47;99318.84;347602;28;1300;-70
2022/12/21 00:59:50;;;;;;;22.52;14.27;;;;;;;7.24;80.55;99324.88;348179;28;742;-70
2022/12/21 01:00:03;;;;;;;23.35;14.75;;;;;;;7.24;80.39;99323.13;347847;28;1066;-70
2022/12/21 01:00:17;;;;;;;21.35;14.15;;;;;;;7.25;80.57;99327.41;347700;28;1308;-69
2022/12/21 01:00:29;;;;;;;20.98;14.07;;;;;;;7.28;80.60;99323.91;346898;28;1680;-70
2022/12/21 01:00:41;;;;;;;21.55;14.23;;;;;;;7.28;80.36;99329.91;347910;28;1061;-69
2022/12/21 01:00:55;;;;;;;22.85;14.65;;;;;;;7.27;80.26;99320.47;346401;28;3057;-70
2022/12/21 01:01:11;;;;;;;23.88;14.80;;;;;;;7.28;80.34;99326.50;346713;28;1007;-71
2022/12/21 01:01:26;;;;;;;23.10;14.50;;;;;;;7.29;80.21;99323.03;346797;28;2604;-70
2022/12/21 01:01:38;;;;;;;23.15;14.85;;;;;;;7.28;80.51;99323.91;346994;28;1540;-70